Time;durP1;ratioP1;P1;durP2;ratioP2;P2;SDS_P1;SDS_P2;PMS_P1;PMS_P2;Temp;Humidity;BMP_temperature;BMP_pressure;BME280_temperature;BME280_humidity;BME280_pressure;Samples;Min_cycle;Max_cycle;Signal;HPM_P1;HPM_P2
2022/12/24 00:01:27;;;;;;;3.55;1.58;;;;;;;;;;5065943;28;20028;-44
2022/12/24 00:03:53;;;;;;;3.83;1.35;;;;;;;;;;5049556;28;20374;-48
2022/12/24 00:06:22;;;;;;;3.53;1.55;;;;;;;;;;5058075;28;20056;-44
2022/12/24 00:08:48;;;;;;;3.13;1.58;;;;;;;;;;5044996;28;20021;-44
2022/12/24 00:11:13;;;;;;;4.50;1.80;;;;;;;;;;5049925;28;20116;-44
2022/12/24 00:13:39;;;;;;;4.65;1.50;;;;;;;;;;5050674;28;20051;-44
2022/12/24 00:16:05;;;;;;;2.60;1.50;;;;;;;;;;5051622;28;20028;-44
2022/12/24 00:18:32;;;;;;;2.85;1.23;;;;;;;;;;5051664;28;20075;-44
2022/12/24 00:20:58;;;;;;;4.25;0.93;;;;;;;;;;5051228;28;20556;-45
2022/12/24 00:23:24;;;;;;;3.75;1.50;;;;;;;;;;5051759;28;20104;-44
2022/12/24 00:25:50;;;;;;;4.68;1.15;;;;;;;;;;5040661;28;20159;-44
2022/12/24 00:28:16;;;;;;;2.88;1.63;;;;;;;;;;5050802;28;20069;-45
2022/12/24 00:30:43;;;;;;;2.97;1.33;;;;;;;;;;5033709;28;20032;-42
2022/12/24 00:33:09;;;;;;;2.67;1.48;;;;;;;;;;5039390;28;20044;-43
2022/12/24 00:35:36;;;;;;;3.78;1.10;;;;;;;;;;5051633;28;20382;-44
2022/12/24 00:38:02;;;;;;;3.58;1.30;;;;;;;;;;5043819;28;20096;-43
2022/12/24 00:40:28;;;;;;;4.00;1.50;;;;;;;;;;5051526;28;20387;-43
2022/12/24 00:42:54;;;;;;;4.40;1.30;;;;;;;;;;5050421;28;20025;-46
2022/12/24 00:45:20;;;;;;;2.17;1.10;;;;;;;;;;5051044;28;20231;-44
2022/12/24 00:47:46;;;;;;;2.38;1.45;;;;;;;;;;5051079;28;20021;-43
2022/12/24 00:50:12;;;;;;;2.45;1.45;;;;;;;;;;5049392;28;20032;-43
2022/12/24 00:52:38;;;;;;;2.80;1.10;;;;;;;;;;5050237;28;20104;-44
2022/12/24 00:55:04;;;;;;;3.33;1.02;;;;;;;;;;5050835;28;20462;-44
2022/12/24 00:57:30;;;;;;;3.35;1.30;;;;;;;;;;5050003;28;20056;-44
2022/12/24 00:59:56;;;;;;;2.80;1.35;;;;;;;;;;5050535;28;20071;-45
2022/12/24 01:02:22;;;;;;;3.20;1.30;;;;;;;;;;5050714;28;20029;-43
2022/12/24 01:07:33;;;;;;;2.53;1.30;;;;;;;;;;5049862;28;20573;-43
2022/12/24 01:09:59;;;;;;;1.95;0.98;;;;;;;;;;5049736;28;20096;-44
2022/12/24 01:12:25;;;;;;;2.42;1.08;;;;;;;;;;5050450;28;20112;-44
2022/12/24 01:14:51;;;;;;;2.92;1.27;;;;;;;;;;5050974;28;20040;-43
2022/12/24 01:17:17;;;;;;;3.10;1.23;;;;;;;;;;5049442;28;20025;-43
2022/12/24 01:19:43;;;;;;;3.35;1.60;;;;;;;;;;5051139;28;20059;-44
2022/12/24 01:22:09;;;;;;;1.92;0.98;;;;;;;;;;5050167;28;20446;-44
2022/12/24 01:24:35;;;;;;;2.50;1.10;;;;;;;;;;5050588;28;20021;-44
2022/12/24 01:27:01;;;;;;;2.38;1.05;;;;;;;;;;5047955;28;20041;-44
2022/12/24 01:29:27;;;;;;;2.83;1.13;;;;;;;;;;5050274;28;20029;-44
2022/12/24 01:31:53;;;;;;;3.50;1.60;;;;;;;;;;5050463;28;20466;-47
2022/12/24 01:34:19;;;;;;;2.13;0.82;;;;;;;;;;5049711;28;20025;-45
2022/12/24 01:36:45;;;;;;;2.42;1.00;;;;;;;;;;5041095;28;20033;-44
2022/12/24 01:39:11;;;;;;;3.75;1.13;;;;;;;;;;5030279;28;20079;-44
2022/12/24 01:44:27;;;;;;;2.13;0.95;;;;;;;;;;5050733;28;20032;-43
2022/12/24 01:47:03;;;;;;;2.33;1.23;;;;;;;;;;5050144;28;20033;-46
2022/12/24 01:49:30;;;;;;;2.22;1.00;;;;;;;;;;5040833;28;20033;-43
2022/12/24 01:51:58;;;;;;;3.38;1.27;;;;;;;;;;5045989;28;20352;-47
2022/12/24 01:54:38;;;;;;;3.45;1.33;;;;;;;;;;5043603;28;20033;-43
2022/12/24 01:57:07;;;;;;;1.25;0.98;;;;;;;;;;5046763;28;20533;-44
2022/12/24 01:59:34;;;;;;;3.05;1.27;;;;;;;;;;5049645;28;20051;-43
2022/12/24 02:02:01;;;;;;;2.33;1.33;;;;;;;;;;5048736;28;20109;-44
2022/12/24 02:04:45;;;;;;;3.80;1.92;;;;;;;;;;5052846;28;20126;-43
2022/12/24 02:07:11;;;;;;;3.30;0.98;;;;;;;;;;5057786;28;20036;-44
2022/12/24 02:09:38;;;;;;;3.00;1.08;;;;;;;;;;5070206;28;20059;-44
2022/12/24 02:12:05;;;;;;;2.85;1.20;;;;;;;;;;5069562;28;20017;-44
2022/12/24 02:14:31;;;;;;;2.30;1.10;;;;;;;;;;5069847;28;20505;-44
2022/12/24 02:16:57;;;;;;;4.47;1.48;;;;;;;;;;5069467;28;20031;-46
2022/12/24 02:19:29;;;;;;;2.70;0.90;;;;;;;;;;5070648;28;20051;-43
2022/12/24 02:22:07;;;;;;;3.38;1.00;;;;;;;;;;5062195;28;20137;-47
2022/12/24 02:24:35;;;;;;;3.53;1.08;;;;;;;;;;5070543;28;20025;-43
2022/12/24 02:27:19;;;;;;;2.90;1.05;;;;;;;;;;5069227;28;20040;-43
2022/12/24 02:29:54;;;;;;;2.45;0.98;;;;;;;;;;5071441;28;20422;-43
2022/12/24 02:32:22;;;;;;;1.58;0.95;;;;;;;;;;5073349;28;20039;-43
2022/12/24 02:34:58;;;;;;;4.50;1.30;;;;;;;;;;5073897;28;20366;-44
2022/12/24 02:37:30;;;;;;;1.52;0.93;;;;;;;;;;5064492;28;20064;-44
2022/12/24 02:39:58;;;;;;;2.15;0.70;;;;;;;;;;5073216;28;20032;-44
2022/12/24 02:42:26;;;;;;;2.33;0.93;;;;;;;;;;5073237;28;20042;-43
2022/12/24 02:44:55;;;;;;;4.22;1.42;;;;;;;;;;5073426;28;20032;-47
2022/12/24 02:47:22;;;;;;;1.67;1.00;;;;;;;;;;5073068;28;20033;-44
2022/12/24 02:49:48;;;;;;;1.48;0.80;;;;;;;;;;5073442;28;20056;-44
2022/12/24 02:52:31;;;;;;;1.92;0.80;;;;;;;;;;5071807;28;20052;-44
2022/12/24 02:54:58;;;;;;;4.05;1.20;;;;;;;;;;5072214;28;20489;-44
2022/12/24 02:57:44;;;;;;;2.10;0.80;;;;;;;;;;5073456;28;20033;-44
2022/12/24 03:00:13;;;;;;;1.55;0.70;;;;;;;;;;5015189;28;20028;-44
2022/12/24 03:02:39;;;;;;;2.88;1.42;;;;;;;;;;5072887;28;20027;-43
2022/12/24 03:05:10;;;;;;;2.05;1.05;;;;;;;;;;5053384;28;20497;-43
2022/12/24 03:07:39;;;;;;;1.85;0.93;;;;;;;;;;5072475;28;20081;-44
2022/12/24 03:10:28;;;;;;;3.83;1.40;;;;;;;;;;5072138;28;20351;-44
2022/12/24 03:12:55;;;;;;;2.67;0.85;;;;;;;;;;5068503;28;20028;-47
2022/12/24 03:15:23;;;;;;;3.97;1.15;;;;;;;;;;5070576;28;20073;-44
2022/12/24 03:17:50;;;;;;;2.50;1.17;;;;;;;;;;5069005;28;20339;-44
2022/12/24 03:20:25;;;;;;;3.17;1.08;;;;;;;;;;5070701;28;20040;-44
2022/12/24 03:22:51;;;;;;;2.78;0.98;;;;;;;;;;5058578;28;20028;-44
2022/12/24 03:25:17;;;;;;;3.78;1.10;;;;;;;;;;5069571;28;20048;-44
2022/12/24 03:27:43;;;;;;;2.70;0.88;;;;;;;;;;5069554;28;20041;-43
2022/12/24 03:30:13;;;;;;;3.13;1.00;;;;;;;;;;5070928;28;20035;-44
2022/12/24 03:32:39;;;;;;;3.10;1.00;;;;;;;;;;5067857;28;20017;-47
2022/12/24 03:35:06;;;;;;;3.67;1.05;;;;;;;;;;5059694;28;20029;-44
2022/12/24 03:37:32;;;;;;;2.70;1.10;;;;;;;;;;5069788;28;20060;-43
2022/12/24 03:39:58;;;;;;;1.52;0.95;;;;;;;;;;5067322;28;20476;-43
2022/12/24 03:42:24;;;;;;;2.55;1.10;;;;;;;;;;5067748;28;20119;-44
2022/12/24 03:44:50;;;;;;;2.35;1.05;;;;;;;;;;5071348;28;20024;-44
2022/12/24 03:47:15;;;;;;;2.95;1.20;;;;;;;;;;5069873;28;20048;-44
2022/12/24 03:49:41;;;;;;;1.48;0.70;;;;;;;;;;5068588;28;20567;-44
2022/12/24 03:52:07;;;;;;;2.25;1.17;;;;;;;;;;5067871;28;20033;-44
2022/12/24 03:54:33;;;;;;;1.65;0.95;;;;;;;;;;5070349;28;20117;-43
2022/12/24 03:56:59;;;;;;;3.65;1.35;;;;;;;;;;5068239;28;20024;-44
2022/12/24 03:59:26;;;;;;;2.88;0.90;;;;;;;;;;5070780;28;20027;-44
2022/12/24 04:01:52;;;;;;;2.42;1.33;;;;;;;;;;5068533;28;20024;-47
2022/12/24 04:04:18;;;;;;;1.60;0.75;;;;;;;;;;5069955;28;20056;-44
2022/12/24 04:06:44;;;;;;;3.30;1.33;;;;;;;;;;5070003;28;20547;-44
2022/12/24 04:09:11;;;;;;;2.33;0.88;;;;;;;;;;5071236;28;20020;-44
2022/12/24 04:11:36;;;;;;;2.35;0.70;;;;;;;;;;5069975;28;20025;-44
2022/12/24 04:14:03;;;;;;;3.75;1.20;;;;;;;;;;5069069;28;20031;-44
2022/12/24 04:16:29;;;;;;;1.98;0.80;;;;;;;;;;5070614;28;20044;-44
2022/12/24 04:18:55;;;;;;;2.92;1.40;;;;;;;;;;5069781;28;20052;-47
2022/12/24 04:21:21;;;;;;;4.05;1.67;;;;;;;;;;5069629;28;20028;-43
2022/12/24 04:23:47;;;;;;;3.05;0.90;;;;;;;;;;5069641;28;20093;-44
2022/12/24 04:26:13;;;;;;;3.45;0.93;;;;;;;;;;5068998;28;20037;-44
2022/12/24 04:28:39;;;;;;;1.73;0.95;;;;;;;;;;5068690;28;20030;-44
2022/12/24 04:31:06;;;;;;;4.70;0.95;;;;;;;;;;5068890;28;20036;-44
2022/12/24 04:33:33;;;;;;;4.53;1.40;;;;;;;;;;5070015;28;20025;-44
2022/12/24 04:35:59;;;;;;;2.40;1.55;;;;;;;;;;5070999;28;20055;-44
2022/12/24 04:38:25;;;;;;;1.08;0.65;;;;;;;;;;5069207;28;20032;-45
2022/12/24 04:40:58;;;;;;;3.47;1.65;;;;;;;;;;5070057;28;20025;-45
2022/12/24 04:43:24;;;;;;;5.32;1.38;;;;;;;;;;5069683;28;20028;-44
2022/12/24 04:45:50;;;;;;;1.90;0.90;;;;;;;;;;5069866;28;20497;-44
2022/12/24 04:48:16;;;;;;;3.30;1.13;;;;;;;;;;5068562;28;20127;-44
2022/12/24 04:50:42;;;;;;;4.40;1.27;;;;;;;;;;5049704;28;20025;-44
2022/12/24 04:53:07;;;;;;;1.60;0.88;;;;;;;;;;5069956;28;20095;-44
2022/12/24 04:55:33;;;;;;;5.90;2.28;;;;;;;;;;5071483;28;20024;-44
2022/12/24 04:57:59;;;;;;;2.78;0.95;;;;;;;;;;5069808;28;20016;-44
2022/12/24 05:00:25;;;;;;;3.55;1.00;;;;;;;;;;5071048;28;20415;-43
2022/12/24 05:02:52;;;;;;;3.22;0.90;;;;;;;;;;5071087;28;20028;-44
2022/12/24 05:05:17;;;;;;;3.30;1.02;;;;;;;;;;5070379;28;20056;-43
2022/12/24 05:07:43;;;;;;;3.42;0.88;;;;;;;;;;5057511;28;20065;-43
2022/12/24 05:10:10;;;;;;;2.33;0.85;;;;;;;;;;5054535;28;20029;-43
2022/12/24 05:12:36;;;;;;;3.67;1.08;;;;;;;;;;5065582;28;20513;-44
2022/12/24 05:15:03;;;;;;;3.03;0.85;;;;;;;;;;5069215;28;20047;-44
2022/12/24 05:17:29;;;;;;;2.25;1.00;;;;;;;;;;5070500;28;20024;-44
2022/12/24 05:19:54;;;;;;;2.05;0.80;;;;;;;;;;5070117;28;20032;-46
2022/12/24 05:27:50;;;;;;;2.10;1.08;;;;;;;;;;5070161;28;20055;-43
2022/12/24 05:30:16;;;;;;;1.48;0.57;;;;;;;;;;5070555;28;20025;-43
2022/12/24 05:32:42;;;;;;;1.75;1.00;;;;;;;;;;5070271;28;20030;-43
2022/12/24 05:35:08;;;;;;;2.28;0.93;;;;;;;;;;5070153;28;20013;-44
2022/12/24 05:37:34;;;;;;;2.00;1.05;;;;;;;;;;5069515;28;20025;-44
2022/12/24 05:40:00;;;;;;;3.22;0.82;;;;;;;;;;5070527;28;20025;-43
2022/12/24 05:42:26;;;;;;;2.45;0.80;;;;;;;;;;5070230;28;20021;-44
2022/12/24 05:44:52;;;;;;;2.75;1.20;;;;;;;;;;5070841;28;20035;-46
2022/12/24 05:47:18;;;;;;;3.05;1.08;;;;;;;;;;5069489;28;20726;-44
2022/12/24 05:49:43;;;;;;;1.83;0.65;;;;;;;;;;5070850;28;20017;-44
2022/12/24 05:52:09;;;;;;;4.03;1.00;;;;;;;;;;5069075;28;20070;-45
2022/12/24 05:54:35;;;;;;;4.50;0.90;;;;;;;;;;5070445;28;20024;-44
2022/12/24 05:57:01;;;;;;;2.97;0.90;;;;;;;;;;5068865;28;20394;-46
2022/12/24 05:59:28;;;;;;;3.42;1.02;;;;;;;;;;5070434;28;20052;-44
2022/12/24 06:01:54;;;;;;;4.03;0.88;;;;;;;;;;5070132;28;20023;-46
2022/12/24 06:04:20;;;;;;;3.63;1.15;;;;;;;;;;5070519;28;20029;-45
2022/12/24 06:06:46;;;;;;;1.63;0.77;;;;;;;;;;5073861;28;20025;-43
2022/12/24 06:09:12;;;;;;;3.17;1.23;;;;;;;;;;5072752;28;20025;-44
2022/12/24 06:11:37;;;;;;;1.65;0.82;;;;;;;;;;5074107;28;20381;-44
2022/12/24 06:14:04;;;;;;;2.42;0.70;;;;;;;;;;5072911;28;20048;-44
2022/12/24 06:16:29;;;;;;;2.65;0.73;;;;;;;;;;5069855;28;20489;-43
2022/12/24 06:18:55;;;;;;;2.97;1.15;;;;;;;;;;5069798;28;20112;-47
2022/12/24 06:21:21;;;;;;;3.30;1.02;;;;;;;;;;5074284;28;20020;-44
2022/12/24 06:23:47;;;;;;;4.00;1.40;;;;;;;;;;5049716;28;20374;-44
2022/12/24 06:26:15;;;;;;;3.20;1.00;;;;;;;;;;5046419;28;20040;-45
2022/12/24 06:28:42;;;;;;;2.78;0.80;;;;;;;;;;5064276;28;20489;-44
2022/12/24 06:31:11;;;;;;;1.92;0.80;;;;;;;;;;5073964;28;20025;-43
2022/12/24 06:33:37;;;;;;;5.85;1.10;;;;;;;;;;5067357;28;20028;-43
2022/12/24 06:36:06;;;;;;;3.80;0.80;;;;;;;;;;5078158;28;20024;-44
2022/12/24 06:38:32;;;;;;;3.95;1.20;;;;;;;;;;5072797;28;20359;-44
2022/12/24 06:40:58;;;;;;;3.67;0.73;;;;;;;;;;5071301;28;20027;-44
2022/12/24 06:43:24;;;;;;;4.82;1.27;;;;;;;;;;5072950;28;20154;-44
2022/12/24 06:45:50;;;;;;;3.58;1.00;;;;;;;;;;5070776;28;20542;-45
2022/12/24 06:48:16;;;;;;;1.88;0.70;;;;;;;;;;5072456;28;20047;-44
2022/12/24 06:50:42;;;;;;;2.90;0.73;;;;;;;;;;5073050;28;20029;-44
2022/12/24 06:53:09;;;;;;;2.95;1.38;;;;;;;;;;5074248;28;20051;-44
2022/12/24 06:55:34;;;;;;;2.97;0.93;;;;;;;;;;5069279;28;20488;-44
2022/12/24 06:58:00;;;;;;;2.92;0.93;;;;;;;;;;5067067;28;20032;-44
2022/12/24 07:00:26;;;;;;;3.55;1.13;;;;;;;;;;5072711;28;20021;-44
2022/12/24 07:02:52;;;;;;;2.47;1.35;;;;;;;;;;5072825;28;20119;-46
2022/12/24 07:05:18;;;;;;;2.42;0.88;;;;;;;;;;5070701;28;20040;-44
2022/12/24 07:07:45;;;;;;;3.08;1.00;;;;;;;;;;5072764;28;20112;-44
2022/12/24 07:10:12;;;;;;;2.42;0.85;;;;;;;;;;5070897;28;20470;-44
2022/12/24 07:12:38;;;;;;;1.77;0.75;;;;;;;;;;5072290;28;20516;-44
2022/12/24 07:15:04;;;;;;;4.10;1.05;;;;;;;;;;5071800;28;20041;-44
2022/12/24 07:17:30;;;;;;;1.75;0.60;;;;;;;;;;5072420;28;20085;-44
2022/12/24 07:19:56;;;;;;;2.20;1.02;;;;;;;;;;5069205;28;20968;-47
2022/12/24 07:22:22;;;;;;;3.67;1.35;;;;;;;;;;5070944;28;20028;-44
2022/12/24 07:24:48;;;;;;;3.15;1.33;;;;;;;;;;5072499;28;20354;-44
2022/12/24 07:27:14;;;;;;;2.95;1.00;;;;;;;;;;5060705;28;20052;-44
2022/12/24 07:29:40;;;;;;;3.10;0.85;;;;;;;;;;5059268;28;20101;-44
2022/12/24 07:32:06;;;;;;;3.78;0.95;;;;;;;;;;5067131;28;20107;-44
2022/12/24 07:34:32;;;;;;;2.15;0.90;;;;;;;;;;5052093;28;20124;-44
2022/12/24 07:36:58;;;;;;;4.45;0.90;;;;;;;;;;5075338;28;20025;-46
2022/12/24 07:39:24;;;;;;;2.95;0.85;;;;;;;;;;5071928;28;20028;-44
2022/12/24 07:41:50;;;;;;;2.45;0.80;;;;;;;;;;5072748;28;20100;-44
2022/12/24 07:44:16;;;;;;;4.63;1.98;;;;;;;;;;5070799;28;20116;-43
2022/12/24 07:46:43;;;;;;;2.30;0.93;;;;;;;;;;5067506;28;20473;-44
2022/12/24 07:49:09;;;;;;;1.73;0.80;;;;;;;;;;5070137;28;20794;-44
2022/12/24 07:51:35;;;;;;;1.50;0.77;;;;;;;;;;5072274;28;20052;-44
2022/12/24 07:54:01;;;;;;;2.83;1.45;;;;;;;;;;5069813;28;20024;-44
2022/12/24 07:56:27;;;;;;;2.35;0.90;;;;;;;;;;5071361;28;20024;-44
2022/12/24 07:58:53;;;;;;;3.08;1.27;;;;;;;;;;5070326;28;20371;-48
2022/12/24 08:01:19;;;;;;;2.47;0.75;;;;;;;;;;5071251;28;20028;-44
2022/12/24 08:03:45;;;;;;;2.90;0.80;;;;;;;;;;5067157;28;20032;-43
2022/12/24 08:06:11;;;;;;;3.15;1.02;;;;;;;;;;5070454;28;20127;-44
2022/12/24 08:08:37;;;;;;;3.83;0.90;;;;;;;;;;5070776;28;20032;-44
2022/12/24 08:11:04;;;;;;;2.28;1.15;;;;;;;;;;5070485;28;20479;-44
2022/12/24 08:13:30;;;;;;;3.85;1.20;;;;;;;;;;5070181;28;20029;-44
2022/12/24 08:15:56;;;;;;;3.40;0.93;;;;;;;;;;5071287;28;20024;-44
2022/12/24 08:18:23;;;;;;;1.77;0.82;;;;;;;;;;5070703;28;20032;-44
2022/12/24 08:20:49;;;;;;;2.25;0.93;;;;;;;;;;5070242;28;20029;-44
2022/12/24 08:23:15;;;;;;;3.83;0.80;;;;;;;;;;5044440;28;20036;-44
2022/12/24 08:25:45;;;;;;;5.97;1.58;;;;;;;;;;5069536;28;20024;-44
2022/12/24 08:28:11;;;;;;;2.88;0.90;;;;;;;;;;5059549;28;20441;-44
2022/12/24 08:30:37;;;;;;;7.10;2.30;;;;;;;;;;5058408;28;20063;-44
2022/12/24 08:33:03;;;;;;;11.40;2.70;;;;;;;;;;5060903;28;20442;-47
2022/12/24 08:35:29;;;;;;;8.68;1.70;;;;;;;;;;5070035;28;20040;-44
2022/12/24 08:37:55;;;;;;;5.53;1.75;;;;;;;;;;5057891;28;20055;-44
2022/12/24 08:40:21;;;;;;;4.75;1.27;;;;;;;;;;5040546;28;21432;-45
2022/12/24 08:42:47;;;;;;;6.90;1.52;;;;;;;;;;5056687;28;20025;-43
2022/12/24 08:45:13;;;;;;;4.50;1.30;;;;;;;;;;5068465;28;20557;-44
2022/12/24 08:47:39;;;;;;;8.25;1.30;;;;;;;;;;5065911;28;20402;-44
2022/12/24 08:50:06;;;;;;;4.53;1.23;;;;;;;;;;5068990;28;20033;-45
2022/12/24 08:52:32;;;;;;;6.10;1.27;;;;;;;;;;5061329;28;20039;-44
2022/12/24 08:54:58;;;;;;;7.15;1.27;;;;;;;;;;5069443;28;20020;-44
2022/12/24 08:57:24;;;;;;;6.03;1.50;;;;;;;;;;5064228;28;20038;-43
2022/12/24 08:59:50;;;;;;;5.78;1.20;;;;;;;;;;5069107;28;20036;-44
2022/12/24 09:02:16;;;;;;;5.28;1.75;;;;;;;;;;5063114;28;20082;-44
2022/12/24 09:04:42;;;;;;;3.80;1.00;;;;;;;;;;5069426;28;20052;-44
2022/12/24 09:07:09;;;;;;;4.13;1.00;;;;;;;;;;5063239;28;20135;-44
2022/12/24 09:09:35;;;;;;;4.97;1.70;;;;;;;;;;5066130;28;20048;-43
2022/12/24 09:12:05;;;;;;;3.53;1.55;;;;;;;;;;5065581;28;20038;-43
2022/12/24 09:14:31;;;;;;;3.08;1.10;;;;;;;;;;5069199;28;20029;-47
2022/12/24 09:16:57;;;;;;;3.95;1.73;;;;;;;;;;5067169;28;20021;-48
2022/12/24 09:19:23;;;;;;;6.45;1.30;;;;;;;;;;5069756;28;20024;-45
2022/12/24 09:21:49;;;;;;;4.07;1.17;;;;;;;;;;5067018;28;20032;-46
2022/12/24 09:24:15;;;;;;;2.90;1.00;;;;;;;;;;5068159;28;20120;-42
2022/12/24 09:26:41;;;;;;;4.97;0.93;;;;;;;;;;5063596;28;20514;-43
2022/12/24 09:29:07;;;;;;;5.18;1.70;;;;;;;;;;5067425;28;20032;-43
2022/12/24 09:31:34;;;;;;;2.88;0.82;;;;;;;;;;5062075;28;20033;-44
2022/12/24 09:33:59;;;;;;;8.15;2.40;;;;;;;;;;5066720;28;20036;-44
2022/12/24 09:36:25;;;;;;;4.90;1.45;;;;;;;;;;5077816;28;20028;-44
2022/12/24 09:38:51;;;;;;;4.57;1.23;;;;;;;;;;5072875;28;20027;-44
2022/12/24 09:41:20;;;;;;;7.35;1.70;;;;;;;;;;5073209;28;20373;-43
2022/12/24 09:43:49;;;;;;;3.47;1.10;;;;;;;;;;5074414;28;20114;-43
2022/12/24 09:46:24;;;;;;;8.38;1.65;;;;;;;;;;5066350;28;20043;-46
2022/12/24 09:48:52;;;;;;;2.13;0.88;;;;;;;;;;5074544;28;20448;-42
2022/12/24 09:51:26;;;;;;;4.47;1.73;;;;;;;;;;5073761;28;20021;-42
2022/12/24 09:53:57;;;;;;;3.95;1.08;;;;;;;;;;5074666;28;20082;-42
2022/12/24 09:56:39;;;;;;;3.58;1.15;;;;;;;;;;5059546;28;20033;-45
2022/12/24 09:59:09;;;;;;;4.20;1.25;;;;;;;;;;5062090;28;20032;-43
2022/12/24 10:01:35;;;;;;;3.72;1.05;;;;;;;;;;5073071;28;20393;-42
2022/12/24 10:04:02;;;;;;;5.25;1.15;;;;;;;;;;5072418;28;20025;-43
2022/12/24 10:06:42;;;;;;;3.63;1.60;;;;;;;;;;5073429;28;20060;-43
2022/12/24 10:09:16;;;;;;;9.18;1.20;;;;;;;;;;5064223;28;20020;-42
2022/12/24 10:11:42;;;;;;;3.60;1.30;;;;;;;;;;5073847;28;20020;-42
2022/12/24 10:14:26;;;;;;;6.05;1.13;;;;;;;;;;5062987;28;20075;-42
2022/12/24 10:16:59;;;;;;;3.75;1.63;;;;;;;;;;5073181;28;20028;-45
2022/12/24 10:19:45;;;;;;;4.10;1.80;;;;;;;;;;5074192;28;20351;-43
2022/12/24 10:22:22;;;;;;;3.00;1.10;;;;;;;;;;5034043;28;20033;-42
2022/12/24 10:24:57;;;;;;;6.10;1.52;;;;;;;;;;5073617;28;20422;-42
2022/12/24 10:27:26;;;;;;;6.90;1.40;;;;;;;;;;5071281;28;20504;-43
2022/12/24 10:30:05;;;;;;;5.70;1.45;;;;;;;;;;5072547;28;20020;-43
2022/12/24 10:32:32;;;;;;;3.92;1.30;;;;;;;;;;5073268;28;20024;-43
2022/12/24 10:35:04;;;;;;;8.70;1.83;;;;;;;;;;5074511;28;20028;-42
2022/12/24 10:37:30;;;;;;;5.32;1.55;;;;;;;;;;5080002;28;20099;-43
2022/12/24 10:39:57;;;;;;;5.68;1.55;;;;;;;;;;5072520;28;20032;-45
2022/12/24 10:42:26;;;;;;;10.52;3.17;;;;;;;;;;5069475;28;20040;-42
2022/12/24 10:44:55;;;;;;;5.00;2.17;;;;;;;;;;5061433;28;20023;-45
2022/12/24 10:47:22;;;;;;;6.20;2.47;;;;;;;;;;5073212;28;20119;-43
2022/12/24 10:49:59;;;;;;;3.65;1.63;;;;;;;;;;5072656;28;20085;-43
2022/12/24 10:52:28;;;;;;;4.25;1.38;;;;;;;;;;5072702;28;20032;-42
2022/12/24 10:55:09;;;;;;;8.18;1.40;;;;;;;;;;5063145;28;20033;-46
2022/12/24 10:57:36;;;;;;;5.28;1.40;;;;;;;;;;5073937;28;20035;-42
2022/12/24 11:00:02;;;;;;;8.90;1.63;;;;;;;;;;5079263;28;20036;-42
2022/12/24 11:02:30;;;;;;;7.05;1.60;;;;;;;;;;5072822;28;20032;-43
2022/12/24 11:04:58;;;;;;;4.70;1.30;;;;;;;;;;5072623;28;20045;-46
2022/12/24 11:07:24;;;;;;;3.20;1.50;;;;;;;;;;5072563;28;20087;-43
2022/12/24 11:10:00;;;;;;;6.55;1.85;;;;;;;;;;5073790;28;20339;-42
2022/12/24 11:12:29;;;;;;;5.43;1.73;;;;;;;;;;5073313;28;20200;-42
2022/12/24 11:15:01;;;;;;;7.85;3.35;;;;;;;;;;5073186;28;20028;-45
2022/12/24 11:17:27;;;;;;;6.07;1.83;;;;;;;;;;5064196;28;20117;-42
2022/12/24 11:19:53;;;;;;;3.58;1.27;;;;;;;;;;5073992;28;20028;-46
2022/12/24 11:22:22;;;;;;;5.05;1.90;;;;;;;;;;5072212;28;20075;-43
2022/12/24 11:24:56;;;;;;;3.03;1.23;;;;;;;;;;5073195;28;20473;-42
2022/12/24 11:27:23;;;;;;;4.00;1.40;;;;;;;;;;5072030;28;20040;-42
2022/12/24 11:29:49;;;;;;;3.35;1.23;;;;;;;;;;5073076;28;20025;-42
2022/12/24 11:32:20;;;;;;;6.90;1.48;;;;;;;;;;5060781;28;20592;-43
2022/12/24 11:34:48;;;;;;;4.07;1.35;;;;;;;;;;5066070;28;20021;-43
2022/12/24 11:37:14;;;;;;;3.33;1.20;;;;;;;;;;5063366;28;20576;-42
2022/12/24 11:39:41;;;;;;;6.03;1.30;;;;;;;;;;5065051;28;20146;-42
2022/12/24 11:42:07;;;;;;;6.35;2.17;;;;;;;;;;5069852;28;20579;-43
2022/12/24 11:44:33;;;;;;;7.38;2.75;;;;;;;;;;5068462;28;20033;-43
2022/12/24 11:46:58;;;;;;;3.25;1.30;;;;;;;;;;5070788;28;20031;-45
2022/12/24 11:49:24;;;;;;;5.65;1.48;;;;;;;;;;5072263;28;20490;-43
2022/12/24 11:51:59;;;;;;;5.55;1.23;;;;;;;;;;5066327;28;20025;-42
2022/12/24 11:54:35;;;;;;;5.72;1.92;;;;;;;;;;5071138;28;20457;-42
2022/12/24 11:57:01;;;;;;;3.00;1.13;;;;;;;;;;5065949;28;20055;-43
2022/12/24 11:59:32;;;;;;;4.75;2.55;;;;;;;;;;5071847;28;20469;-42
2022/12/24 12:02:02;;;;;;;2.70;1.43;;;;;;;;;;5053288;28;20377;-46
2022/12/24 12:04:29;;;;;;;2.80;1.30;;;;;;;;;;5071869;28;21374;-44
2022/12/24 12:06:58;;;;;;;3.65;1.23;;;;;;;;;;5070115;28;20055;-46
2022/12/24 12:09:26;;;;;;;4.45;1.50;;;;;;;;;;5071687;28;20496;-42
2022/12/24 12:12:16;;;;;;;6.18;1.50;;;;;;;;;;5071942;28;20024;-45
2022/12/24 12:14:48;;;;;;;4.38;1.27;;;;;;;;;;5059620;28;20500;-42
2022/12/24 12:17:29;;;;;;;3.10;1.20;;;;;;;;;;5070509;28;20028;-42
2022/12/24 12:20:18;;;;;;;6.97;2.03;;;;;;;;;;5070294;28;20029;-46
2022/12/24 12:23:08;;;;;;;5.10;1.13;;;;;;;;;;5058730;28;20047;-43
2022/12/24 12:25:52;;;;;;;9.60;1.73;;;;;;;;;;5043069;28;20040;-42
2022/12/24 12:28:23;;;;;;;5.60;1.60;;;;;;;;;;5068514;28;20029;-42
2022/12/24 12:31:00;;;;;;;4.10;1.42;;;;;;;;;;5069815;28;20021;-42
2022/12/24 12:33:30;;;;;;;5.15;1.33;;;;;;;;;;5070068;28;20537;-43
2022/12/24 12:35:57;;;;;;;4.00;1.65;;;;;;;;;;5071397;28;20496;-46
2022/12/24 12:38:24;;;;;;;2.63;1.33;;;;;;;;;;5070785;28;20027;-43
2022/12/24 12:40:56;;;;;;;6.32;1.77;;;;;;;;;;5070660;28;20474;-43
2022/12/24 12:43:37;;;;;;;4.75;1.23;;;;;;;;;;5073456;28;20036;-43
2022/12/24 12:46:13;;;;;;;2.42;1.35;;;;;;;;;;5067722;28;20040;-43
2022/12/24 12:49:02;;;;;;;4.40;1.98;;;;;;;;;;5061048;28;20042;-43
2022/12/24 12:51:32;;;;;;;3.67;1.13;;;;;;;;;;5056856;28;20038;-43
2022/12/24 12:54:01;;;;;;;5.25;1.77;;;;;;;;;;5068980;28;20097;-43
2022/12/24 12:56:31;;;;;;;4.70;1.40;;;;;;;;;;5067082;28;20085;-43
2022/12/24 12:59:01;;;;;;;5.60;1.33;;;;;;;;;;5072415;28;20020;-45
2022/12/24 13:01:50;;;;;;;5.68;1.58;;;;;;;;;;5069435;28;20539;-42
2022/12/24 13:04:16;;;;;;;5.82;1.27;;;;;;;;;;5065232;28;20592;-43
2022/12/24 13:06:58;;;;;;;5.97;1.10;;;;;;;;;;5057438;28;20024;-43
2022/12/24 13:09:24;;;;;;;;;;;;;;;;;;5059718;28;20028;-43
2022/12/24 13:11:53;;;;;;;2.67;1.17;;;;;;;;;;5061359;28;19908;-43
2022/12/24 13:14:19;;;;;;;3.08;1.33;;;;;;;;;;5060434;28;20029;-43
2022/12/24 13:17:25;;;;;;;6.78;1.55;;;;;;;;;;5061097;28;20112;-44
2022/12/24 13:19:56;;;;;;;4.93;1.35;;;;;;;;;;4963861;28;20034;-44
2022/12/24 13:22:22;;;;;;;5.38;1.02;;;;;;;;;;4963950;28;20031;-44
2022/12/24 13:24:50;;;;;;;4.68;1.45;;;;;;;;;;5010407;28;20052;-45
2022/12/24 13:27:18;;;;;;;4.57;1.48;;;;;;;;;;5043876;28;20094;-45
2022/12/24 13:29:55;;;;;;;6.03;1.60;;;;;;;;;;5054825;28;20043;-44
2022/12/24 13:32:21;;;;;;;5.30;1.30;;;;;;;;;;5061634;28;20079;-43
2022/12/24 13:35:17;;;;;;;2.15;1.10;;;;;;;;;;5055861;28;20066;-44
2022/12/24 13:37:43;;;;;;;8.57;1.88;;;;;;;;;;5031847;28;20041;-43
2022/12/24 13:40:29;;;;;;;8.63;1.70;;;;;;;;;;5048991;28;20351;-43
2022/12/24 13:42:58;;;;;;;4.90;1.55;;;;;;;;;;5037152;28;20494;-48
2022/12/24 13:45:44;;;;;;;5.22;1.13;;;;;;;;;;5059230;28;20032;-44
2022/12/24 13:48:10;;;;;;;3.45;1.20;;;;;;;;;;5049143;28;20037;-47
2022/12/24 13:50:36;;;;;;;5.10;1.90;;;;;;;;;;5049293;28;20024;-45
2022/12/24 13:53:02;;;;;;;6.95;1.38;;;;;;;;;;5031130;28;20466;-44
2022/12/24 13:55:29;;;;;;;7.07;2.45;;;;;;;;;;5050974;28;20474;-44
2022/12/24 13:57:58;;;;;;;4.63;1.33;;;;;;;;;;5049989;28;20108;-47
2022/12/24 14:00:24;;;;;;;5.25;1.15;;;;;;;;;;5049065;28;20029;-44
2022/12/24 14:02:50;;;;;;;4.65;1.10;;;;;;;;;;5051309;28;20036;-44
2022/12/24 14:05:37;;;;;;;3.30;1.00;;;;;;;;;;5048788;28;20227;-45
2022/12/24 14:08:09;;;;;;;9.27;2.90;;;;;;;;;;5048280;28;20048;-44
2022/12/24 14:10:38;;;;;;;5.45;1.83;;;;;;;;;;5048284;28;20025;-44
2022/12/24 14:13:08;;;;;;;7.93;1.23;;;;;;;;;;5049460;28;20025;-44
2022/12/24 14:15:44;;;;;;;4.32;1.13;;;;;;;;;;5048685;28;20048;-44
2022/12/24 14:18:10;;;;;;;4.05;1.45;;;;;;;;;;5048290;28;20104;-44
2022/12/24 14:20:36;;;;;;;3.72;1.50;;;;;;;;;;5047454;28;20029;-44
2022/12/24 14:23:04;;;;;;;4.55;1.40;;;;;;;;;;5047288;28;20017;-44
2022/12/24 14:25:31;;;;;;;2.97;1.40;;;;;;;;;;5049750;28;20025;-45
2022/12/24 14:28:04;;;;;;;2.55;1.15;;;;;;;;;;5052730;28;20102;-47
2022/12/24 14:30:30;;;;;;;3.80;1.30;;;;;;;;;;5050309;28;20116;-44
2022/12/24 14:32:57;;;;;;;5.03;1.60;;;;;;;;;;5050278;28;20138;-48
2022/12/24 14:35:28;;;;;;;2.75;1.10;;;;;;;;;;5051596;28;20071;-44
2022/12/24 14:37:57;;;;;;;4.53;1.20;;;;;;;;;;5051325;28;20029;-47
2022/12/24 14:40:27;;;;;;;4.78;1.25;;;;;;;;;;5046616;28;20332;-44
2022/12/24 14:43:11;;;;;;;3.28;1.10;;;;;;;;;;5049395;28;20029;-44
2022/12/24 14:45:40;;;;;;;6.53;2.17;;;;;;;;;;5051816;28;20025;-44
2022/12/24 14:48:26;;;;;;;3.08;1.40;;;;;;;;;;5048173;28;20513;-44
2022/12/24 14:50:58;;;;;;;3.33;1.15;;;;;;;;;;5050822;28;20091;-43
2022/12/24 14:53:24;;;;;;;;;;;;;;;;;;5049570;28;20052;-44
2022/12/24 14:55:50;;;;;;;4.07;1.30;;;;;;;;;;5050450;28;19994;-44
2022/12/24 14:58:27;;;;;;;8.00;1.38;;;;;;;;;;5049385;28;20040;-44
2022/12/24 15:00:55;;;;;;;3.65;1.50;;;;;;;;;;5051759;28;20025;-44
2022/12/24 15:03:22;;;;;;;2.20;1.30;;;;;;;;;;5050383;28;20043;-44